Time;durP1;ratioP1;P1;durP2;ratioP2;P2;SDS_P1;SDS_P2;PMS_P1;PMS_P2;Temp;Humidity;BMP_temperature;BMP_pressure;BME280_temperature;BME280_humidity;BME280_pressure;Samples;Min_cycle;Max_cycle;Signal;HPM_P1;HPM_P2
2022/01/14 00:01:45;;;;;;;11.18;8.27;;;15.40;46.50;;;;;;5079405;28;20020;-37
2022/01/14 00:04:11;;;;;;;10.60;8.30;;;15.30;46.40;;;;;;5078367;28;20099;-37
2022/01/14 00:06:39;;;;;;;11.52;8.48;;;15.30;46.40;;;;;;5061030;28;20056;-37
2022/01/14 00:09:07;;;;;;;12.35;8.80;;;15.30;46.30;;;;;;5078558;28;20072;-38
2022/01/14 00:11:58;;;;;;;9.88;7.95;;;15.30;46.40;;;;;;5061849;28;20025;-37
2022/01/14 00:14:40;;;;;;;11.73;8.05;;;15.30;46.30;;;;;;5079514;28;20021;-37
2022/01/14 00:17:08;;;;;;;11.38;8.50;;;15.30;46.30;;;;;;5078652;28;20016;-37
2022/01/14 00:19:34;;;;;;;11.13;8.63;;;15.30;46.20;;;;;;5079030;28;20036;-37
2022/01/14 00:22:06;;;;;;;11.63;8.52;;;15.30;46.20;;;;;;5078503;28;20021;-37
2022/01/14 00:35:23;;;;;;;10.30;7.72;;;15.30;46.10;;;;;;5079032;28;20502;-42
2022/01/14 00:37:49;;;;;;;11.10;8.07;;;15.30;46.00;;;;;;5077655;28;20024;-37
2022/01/14 00:40:14;;;;;;;11.02;7.93;;;15.20;46.00;;;;;;5060207;28;20013;-37
2022/01/14 00:42:40;;;;;;;11.35;8.32;;;15.20;45.90;;;;;;5060478;28;20020;-37
2022/01/14 00:45:07;;;;;;;10.43;7.57;;;15.30;45.90;;;;;;5060089;28;20028;-38
2022/01/14 00:47:37;;;;;;;10.48;7.80;;;15.20;45.90;;;;;;5078056;28;20009;-37
2022/01/14 00:50:07;;;;;;;10.50;7.82;;;15.20;45.80;;;;;;5076925;28;20024;-37
2022/01/14 00:52:33;;;;;;;;;;;15.20;45.80;;;;;;5078061;28;20009;-37
2022/01/14 00:54:59;;;;;;;11.32;7.68;;;15.20;45.80;;;;;;5076971;28;19904;-36
2022/01/14 00:59:14;;;;;;;12.60;8.55;;;15.20;45.70;;;;;;5078860;28;20024;-38
2022/01/14 01:00:11;;;;;;;11.20;8.13;;;15.20;45.80;;;;;;5078540;28;20422;-37
2022/01/14 01:02:38;;;;;;;10.23;7.95;;;15.20;45.70;;;;;;5078268;28;20025;-37
2022/01/14 01:05:05;;;;;;;9.95;7.50;;;15.20;45.70;;;;;;5060408;28;20020;-37
2022/01/14 01:07:30;;;;;;;10.18;7.65;;;15.20;45.60;;;;;;5059670;28;20016;-36
2022/01/14 01:09:56;;;;;;;10.38;7.45;;;15.20;45.60;;;;;;5077435;28;20012;-37
2022/01/14 01:12:33;;;;;;;11.10;7.90;;;15.20;45.60;;;;;;5059507;28;20023;-37
2022/01/14 01:15:05;;;;;;;10.23;7.82;;;15.20;45.60;;;;;;5077532;28;20029;-37
2022/01/14 01:17:32;;;;;;;9.48;7.15;;;15.10;45.60;;;;;;5077251;28;20017;-37
2022/01/14 01:19:58;;;;;;;11.00;8.07;;;15.10;45.40;;;;;;5077470;28;20027;-37
2022/01/14 01:22:24;;;;;;;10.57;7.82;;;15.10;45.50;;;;;;5078311;28;20029;-37
2022/01/14 01:24:50;;;;;;;10.05;7.78;;;15.10;45.40;;;;;;5078285;28;20032;-37
2022/01/14 01:27:18;;;;;;;9.68;7.25;;;15.10;45.40;;;;;;5077108;28;20036;-37
2022/01/14 01:29:50;;;;;;;10.40;7.70;;;15.10;45.40;;;;;;5077824;28;20024;-37
2022/01/14 01:32:15;;;;;;;9.50;7.15;;;15.10;45.30;;;;;;5078433;28;20016;-37
2022/01/14 01:34:43;;;;;;;10.48;7.55;;;15.10;45.30;;;;;;5059952;28;20023;-38
2022/01/14 01:37:09;;;;;;;9.45;7.45;;;15.10;45.20;;;;;;5078257;28;20074;-37
2022/01/14 01:39:35;;;;;;;9.35;7.38;;;15.10;45.30;;;;;;5077262;28;20027;-36
2022/01/14 01:42:06;;;;;;;10.23;7.38;;;15.10;45.20;;;;;;5079310;28;20023;-37
2022/01/14 01:44:33;;;;;;;9.75;7.50;;;15.10;45.30;;;;;;5077637;28;20016;-37
2022/01/14 01:46:59;;;;;;;10.30;7.43;;;15.00;45.20;;;;;;5077501;28;20025;-37
2022/01/14 01:49:30;;;;;;;8.80;6.82;;;15.00;45.10;;;;;;5076375;28;20013;-37
2022/01/14 01:51:56;;;;;;;9.60;7.63;;;15.00;45.10;;;;;;5077127;28;20015;-38
2022/01/14 01:54:22;;;;;;;10.55;7.75;;;15.00;45.10;;;;;;5075869;28;20045;-36
2022/01/14 01:56:51;;;;;;;8.52;7.15;;;15.00;45.10;;;;;;5075807;28;20047;-37
2022/01/14 01:59:18;;;;;;;9.63;7.22;;;15.00;45.00;;;;;;5079745;28;20020;-38
2022/01/14 02:01:44;;;;;;;9.38;7.32;;;15.00;45.00;;;;;;5080009;28;20079;-37
2022/01/14 02:04:12;;;;;;;9.32;7.25;;;15.00;45.10;;;;;;5062765;28;20392;-36
2022/01/14 02:06:38;;;;;;;10.27;7.82;;;15.00;45.00;;;;;;5081010;28;20069;-37
2022/01/14 02:09:05;;;;;;;9.05;6.85;;;15.00;44.90;;;;;;5080330;28;20020;-37
2022/01/14 02:11:31;;;;;;;8.68;6.85;;;15.00;44.80;;;;;;5080038;28;20097;-37
2022/01/14 02:14:00;;;;;;;9.63;7.22;;;15.00;44.80;;;;;;5079393;28;20027;-37
2022/01/14 02:16:57;;;;;;;9.88;6.93;;;15.00;44.90;;;;;;5078796;28;20020;-37
2022/01/14 02:19:29;;;;;;;9.30;7.00;;;15.00;44.80;;;;;;5077149;28;20038;-37
2022/01/14 02:22:11;;;;;;;9.00;6.78;;;15.00;44.70;;;;;;5077562;28;20040;-36
2022/01/14 02:27:05;;;;;;;9.13;7.30;;;14.90;44.80;;;;;;5078374;28;20059;-37
2022/01/14 02:29:31;;;;;;;8.70;7.00;;;14.90;44.70;;;;;;5078793;28;20088;-36
2022/01/14 02:31:57;;;;;;;8.50;6.57;;;14.90;44.70;;;;;;5078994;28;20467;-36
2022/01/14 02:34:23;;;;;;;8.88;6.90;;;14.90;44.60;;;;;;5079003;28;20028;-36
2022/01/14 02:36:49;;;;;;;9.68;7.25;;;14.90;44.70;;;;;;5078089;28;20028;-36
2022/01/14 02:39:16;;;;;;;8.35;6.60;;;14.90;44.60;;;;;;5077487;28;20025;-38
2022/01/14 02:41:43;;;;;;;9.25;6.90;;;14.90;44.60;;;;;;5076324;28;20017;-37
2022/01/14 02:44:10;;;;;;;8.38;6.53;;;14.90;44.70;;;;;;5059316;28;20024;-36
2022/01/14 02:46:41;;;;;;;8.48;6.72;;;14.90;44.60;;;;;;5077964;28;20083;-37
2022/01/14 02:49:07;;;;;;;8.52;6.97;;;14.90;44.60;;;;;;5078077;28;20024;-37
2022/01/14 02:51:33;;;;;;;8.27;6.75;;;14.90;44.60;;;;;;5077062;28;20017;-37
2022/01/14 02:54:13;;;;;;;8.65;6.82;;;14.90;44.50;;;;;;5077869;28;20048;-36
2022/01/14 02:56:41;;;;;;;;;;;14.90;44.50;;;;;;5079486;28;20089;-36
2022/01/14 02:59:07;;;;;;;9.40;7.10;;;14.90;44.40;;;;;;5078553;28;19984;-36
2022/01/14 03:01:33;;;;;;;9.45;7.20;;;14.90;44.50;;;;;;5079469;28;20052;-36
2022/01/14 03:04:01;;;;;;;9.55;6.93;;;14.90;44.50;;;;;;5077158;28;20108;-36
2022/01/14 03:06:26;;;;;;;9.82;6.60;;;14.80;44.40;;;;;;5076892;28;20047;-36
2022/01/14 03:08:52;;;;;;;10.07;7.00;;;14.80;44.40;;;;;;5075885;28;20017;-37
2022/01/14 03:11:23;;;;;;;8.88;6.97;;;14.80;44.40;;;;;;5075867;28;20070;-37
2022/01/14 03:13:49;;;;;;;7.93;6.70;;;14.80;44.40;;;;;;5058198;28;20020;-37
2022/01/14 03:16:19;;;;;;;8.77;7.03;;;14.80;44.40;;;;;;5076196;28;20505;-36
2022/01/14 03:18:50;;;;;;;10.38;6.78;;;14.80;44.30;;;;;;5075928;28;20025;-37
2022/01/14 03:21:25;;;;;;;9.10;6.70;;;14.90;44.40;;;;;;5059263;28;20021;-37
2022/01/14 03:24:02;;;;;;;8.43;6.93;;;14.80;44.30;;;;;;5076425;28;20027;-36
2022/01/14 03:26:28;;;;;;;9.32;6.95;;;14.80;44.30;;;;;;5076017;28;20016;-37
2022/01/14 03:28:54;;;;;;;7.55;6.60;;;14.80;44.30;;;;;;5058248;28;20013;-37
2022/01/14 03:31:21;;;;;;;8.85;6.90;;;14.80;44.30;;;;;;5076190;28;20021;-37
2022/01/14 03:33:47;;;;;;;9.50;7.03;;;14.80;44.20;;;;;;5075524;28;20068;-36
2022/01/14 03:36:13;;;;;;;9.27;6.97;;;14.80;44.20;;;;;;5058130;28;20017;-37
2022/01/14 03:38:39;;;;;;;8.30;6.78;;;14.80;44.30;;;;;;5075492;28;20029;-36
2022/01/14 03:41:05;;;;;;;8.23;6.65;;;14.80;44.30;;;;;;5075306;28;20017;-36
2022/01/14 03:43:31;;;;;;;7.65;6.50;;;14.80;44.30;;;;;;5075417;28;20430;-36
2022/01/14 03:45:58;;;;;;;9.07;7.20;;;14.80;44.20;;;;;;5076201;28;20020;-36
2022/01/14 03:48:23;;;;;;;9.00;7.00;;;14.80;44.20;;;;;;5075334;28;20009;-36
2022/01/14 03:50:49;;;;;;;9.13;7.25;;;14.80;44.10;;;;;;5057325;28;20028;-36
2022/01/14 03:53:16;;;;;;;8.77;6.78;;;14.80;44.00;;;;;;5075339;28;20021;-36
2022/01/14 03:55:42;;;;;;;7.68;6.60;;;14.90;43.80;;;;;;5057103;28;20031;-37
2022/01/14 03:58:08;;;;;;;8.32;6.68;;;14.90;43.80;;;;;;5075130;28;20043;-36
2022/01/14 04:00:34;;;;;;;9.50;6.82;;;15.00;43.60;;;;;;5075089;28;20021;-36
2022/01/14 04:03:01;;;;;;;8.55;6.90;;;15.10;43.50;;;;;;5074946;28;20040;-38
2022/01/14 04:05:27;;;;;;;8.35;6.95;;;15.20;43.50;;;;;;5075685;28;20017;-36
2022/01/14 04:07:54;;;;;;;8.80;6.93;;;15.30;43.10;;;;;;5075654;28;20021;-37
2022/01/14 04:10:22;;;;;;;8.75;6.80;;;15.50;42.70;;;;;;5075193;28;20379;-37
2022/01/14 04:12:54;;;;;;;8.23;6.75;;;15.60;42.40;;;;;;5074807;28;20028;-36
2022/01/14 04:15:38;;;;;;;8.55;6.50;;;15.70;42.10;;;;;;5057654;28;20395;-37
2022/01/14 04:18:15;;;;;;;8.43;6.47;;;15.80;41.90;;;;;;5073986;28;20013;-36
2022/01/14 04:20:41;;;;;;;9.55;7.32;;;15.80;41.80;;;;;;5073470;28;20027;-37
2022/01/14 04:23:08;;;;;;;9.48;7.20;;;15.90;41.70;;;;;;5074579;28;20020;-38
2022/01/14 04:25:34;;;;;;;7.85;6.75;;;15.90;41.50;;;;;;5074525;28;20028;-36
2022/01/14 04:28:01;;;;;;;9.48;7.13;;;16.00;41.30;;;;;;5075510;28;20075;-37
2022/01/14 04:30:27;;;;;;;8.65;7.13;;;16.10;41.10;;;;;;5074773;28;20009;-37
2022/01/14 04:32:54;;;;;;;8.65;6.65;;;16.20;40.80;;;;;;5074708;28;20021;-38
2022/01/14 04:35:20;;;;;;;8.93;7.10;;;16.30;40.60;;;;;;5074554;28;20017;-38
2022/01/14 04:37:47;;;;;;;9.68;7.10;;;16.40;40.40;;;;;;5074735;28;20032;-37
2022/01/14 04:40:13;;;;;;;7.40;6.45;;;16.50;40.20;;;;;;5074497;28;20099;-37
2022/01/14 04:42:41;;;;;;;9.48;6.60;;;16.60;40.00;;;;;;5073828;28;20649;-36
2022/01/14 04:45:12;;;;;;;8.57;7.10;;;16.60;39.70;;;;;;5074022;28;20021;-37
2022/01/14 04:47:44;;;;;;;8.15;6.60;;;16.80;39.60;;;;;;5073476;28;20009;-37
2022/01/14 04:50:14;;;;;;;8.63;7.20;;;16.90;39.40;;;;;;5073968;28;20022;-36
2022/01/14 04:52:41;;;;;;;9.45;6.88;;;16.90;39.30;;;;;;5073815;28;20113;-39
2022/01/14 04:55:08;;;;;;;8.43;6.90;;;17.00;39.10;;;;;;5055957;28;20051;-38
2022/01/14 04:57:34;;;;;;;8.10;6.43;;;17.10;38.90;;;;;;5074061;28;20066;-37
2022/01/14 05:00:00;;;;;;;8.43;6.65;;;17.10;38.70;;;;;;5073945;28;20017;-37
2022/01/14 05:02:26;;;;;;;8.57;6.18;;;17.20;38.60;;;;;;5074143;28;20101;-38
2022/01/14 05:04:55;;;;;;;8.63;6.43;;;17.30;38.40;;;;;;5073526;28;20021;-37
2022/01/14 05:07:25;;;;;;;8.45;6.55;;;17.30;38.30;;;;;;5056349;28;20032;-37
2022/01/14 05:10:15;;;;;;;8.90;6.63;;;17.40;38.10;;;;;;5056405;28;20021;-37
2022/01/14 05:12:41;;;;;;;8.77;6.68;;;17.50;38.10;;;;;;5059429;28;20104;-36
2022/01/14 05:15:16;;;;;;;8.00;6.47;;;17.50;37.90;;;;;;5073706;28;20020;-38
2022/01/14 05:17:42;;;;;;;7.60;6.43;;;17.60;37.70;;;;;;5073866;28;20011;-37
2022/01/14 05:20:09;;;;;;;10.20;6.40;;;17.70;37.70;;;;;;5073735;28;20020;-37
2022/01/14 05:22:35;;;;;;;8.30;6.38;;;17.80;37.60;;;;;;5073975;28;20044;-37
2022/01/14 05:25:01;;;;;;;8.55;6.63;;;17.80;37.40;;;;;;5073068;28;20490;-37
2022/01/14 05:27:27;;;;;;;7.60;6.40;;;17.90;37.30;;;;;;5073124;28;20021;-37
2022/01/14 05:29:53;;;;;;;9.85;7.03;;;18.00;37.20;;;;;;5073207;28;20016;-36
2022/01/14 05:32:21;;;;;;;10.45;7.40;;;18.00;37.00;;;;;;5074093;28;20017;-37
2022/01/14 05:34:47;;;;;;;10.27;7.00;;;18.10;36.90;;;;;;5076775;28;20042;-37
2022/01/14 05:37:13;;;;;;;8.32;6.38;;;18.20;36.80;;;;;;5077371;28;20013;-37
2022/01/14 05:39:40;;;;;;;8.63;6.45;;;18.30;36.70;;;;;;5077566;28;20026;-40
2022/01/14 05:42:07;;;;;;;8.73;6.68;;;18.30;36.60;;;;;;5077166;28;20549;-37
2022/01/14 05:44:33;;;;;;;7.95;6.40;;;18.30;36.50;;;;;;5077738;28;20076;-38
2022/01/14 05:46:59;;;;;;;10.00;6.97;;;18.40;36.40;;;;;;5077311;28;20066;-37
2022/01/14 05:49:26;;;;;;;9.57;7.10;;;18.40;36.30;;;;;;5077374;28;20039;-37
2022/01/14 05:51:51;;;;;;;9.23;6.50;;;18.50;36.30;;;;;;5077798;28;20009;-38
2022/01/14 05:54:18;;;;;;;9.48;6.65;;;18.50;36.20;;;;;;5077189;28;20052;-37
2022/01/14 05:56:46;;;;;;;11.00;7.15;;;18.60;36.10;;;;;;5076721;28;20088;-38
2022/01/14 05:59:12;;;;;;;10.23;7.40;;;18.60;36.00;;;;;;5076532;28;20024;-38
2022/01/14 06:01:38;;;;;;;9.10;6.88;;;18.70;35.90;;;;;;5076723;28;20406;-38
2022/01/14 06:04:04;;;;;;;9.90;6.80;;;18.70;35.90;;;;;;5076664;28;20040;-38
2022/01/14 06:06:30;;;;;;;8.63;6.60;;;18.80;35.80;;;;;;5058634;28;20017;-37
2022/01/14 06:08:56;;;;;;;10.75;7.43;;;18.80;35.70;;;;;;5076552;28;20020;-38
2022/01/14 06:11:22;;;;;;;10.50;7.00;;;18.90;35.60;;;;;;5076763;28;20017;-37
2022/01/14 06:13:48;;;;;;;10.85;6.85;;;18.90;35.60;;;;;;5059209;28;20017;-37
2022/01/14 06:16:14;;;;;;;9.60;6.75;;;19.00;35.50;;;;;;5058600;28;20382;-37
2022/01/14 06:18:41;;;;;;;10.35;7.35;;;19.10;35.50;;;;;;5058963;28;20566;-37
2022/01/14 06:21:07;;;;;;;10.18;6.95;;;19.10;35.40;;;;;;5076811;28;20016;-38
2022/01/14 06:23:33;;;;;;;9.98;7.10;;;19.20;35.30;;;;;;5076233;28;20386;-37
2022/01/14 06:25:58;;;;;;;10.23;7.03;;;19.20;35.30;;;;;;5057883;28;20063;-38
2022/01/14 06:28:24;;;;;;;10.27;7.05;;;19.30;35.30;;;;;;5076246;28;20005;-37
2022/01/14 06:30:50;;;;;;;10.77;7.22;;;19.20;35.20;;;;;;5058211;28;20095;-38
2022/01/14 06:33:16;;;;;;;10.27;7.20;;;19.30;35.20;;;;;;5041694;28;20017;-38
2022/01/14 06:35:41;;;;;;;11.73;7.43;;;19.30;35.10;;;;;;5076826;28;20028;-37
2022/01/14 06:38:07;;;;;;;10.85;7.45;;;19.40;35.10;;;;;;5058797;28;20039;-37
2022/01/14 06:40:33;;;;;;;12.85;7.40;;;19.40;35.00;;;;;;5076154;28;20467;-37
2022/01/14 06:42:59;;;;;;;12.35;7.35;;;19.50;35.00;;;;;;5058637;28;20016;-38
2022/01/14 06:45:25;;;;;;;10.45;7.40;;;19.50;35.00;;;;;;5076919;28;20041;-37
2022/01/14 06:47:51;;;;;;;10.65;7.38;;;19.50;34.90;;;;;;5059427;28;20017;-36
2022/01/14 06:50:17;;;;;;;12.20;7.90;;;19.60;35.00;;;;;;5058314;28;20552;-37
2022/01/14 06:52:43;;;;;;;13.05;7.70;;;19.70;34.90;;;;;;5058241;28;20017;-38
2022/01/14 06:55:09;;;;;;;12.27;7.55;;;19.70;34.80;;;;;;5058173;28;20134;-36
2022/01/14 06:57:35;;;;;;;11.65;7.70;;;19.70;34.70;;;;;;5075154;28;20019;-36
2022/01/14 07:00:06;;;;;;;10.77;7.25;;;19.70;34.70;;;;;;5075983;28;20108;-35
2022/01/14 07:02:33;;;;;;;10.98;7.38;;;19.80;34.70;;;;;;5075251;28;20032;-35
2022/01/14 07:04:59;;;;;;;11.57;7.75;;;19.80;34.70;;;;;;5041980;28;20044;-38
2022/01/14 07:07:25;;;;;;;12.27;7.65;;;19.90;34.70;;;;;;5058771;28;20477;-37
2022/01/14 07:09:57;;;;;;;12.73;7.15;;;19.90;34.70;;;;;;5059041;28;20020;-37
2022/01/14 07:12:34;;;;;;;10.73;6.97;;;19.90;34.80;;;;;;5059031;28;20024;-37
2022/01/14 07:15:00;;;;;;;12.27;7.55;;;19.90;35.30;;;;;;5057562;28;20035;-37
2022/01/14 07:17:27;;;;;;;11.80;7.38;;;19.90;34.60;;;;;;5076202;28;20020;-37
2022/01/14 07:19:57;;;;;;;12.07;7.75;;;20.00;34.60;;;;;;5055824;28;20371;-36
2022/01/14 07:22:23;;;;;;;13.32;8.35;;;20.00;34.70;;;;;;5054754;28;20069;-36
2022/01/14 07:24:51;;;;;;;18.75;8.82;;;19.90;34.90;;;;;;5072402;28;20044;-36
2022/01/14 07:27:16;;;;;;;23.48;10.88;;;19.60;35.80;;;;;;5039298;28;20013;-36
2022/01/14 07:29:42;;;;;;;27.85;11.68;;;19.20;37.10;;;;;;5038894;28;20019;-36
2022/01/14 07:32:08;;;;;;;25.33;11.65;;;19.00;38.50;;;;;;5073543;28;20434;-35
2022/01/14 07:34:34;;;;;;;22.42;12.40;;;18.90;38.90;;;;;;5073666;28;20112;-36
2022/01/14 07:37:00;;;;;;;24.55;12.20;;;18.80;38.80;;;;;;5055150;28;20456;-36
2022/01/14 07:39:28;;;;;;;33.10;13.07;;;18.80;38.80;;;;;;5073441;28;20048;-37
2022/01/14 07:41:54;;;;;;;25.02;12.45;;;18.70;38.50;;;;;;5073535;28;20122;-36
2022/01/14 07:44:20;;;;;;;23.52;13.10;;;18.60;38.40;;;;;;5073189;28;20115;-36
2022/01/14 07:46:47;;;;;;;22.58;12.20;;;18.60;38.20;;;;;;5073426;28;20005;-36
2022/01/14 07:49:13;;;;;;;21.83;12.30;;;18.60;38.10;;;;;;5072990;28;20023;-36
2022/01/14 07:51:39;;;;;;;22.25;11.63;;;18.60;38.00;;;;;;5073518;28;20364;-36
2022/01/14 07:54:05;;;;;;;23.27;12.65;;;18.60;38.00;;;;;;5073137;28;20056;-36
2022/01/14 07:56:45;;;;;;;19.02;11.63;;;18.60;37.80;;;;;;5072516;28;20064;-36
2022/01/14 07:59:18;;;;;;;19.67;12.35;;;18.60;37.80;;;;;;5073298;28;20045;-40
2022/01/14 08:01:47;;;;;;;22.02;12.20;;;18.50;37.80;;;;;;5073006;28;20157;-36
2022/01/14 08:04:13;;;;;;;24.77;12.52;;;18.50;37.90;;;;;;5054723;28;20441;-35
2022/01/14 08:06:45;;;;;;;21.08;12.52;;;18.60;37.90;;;;;;5073046;28;20391;-36
2022/01/14 08:09:11;;;;;;;19.88;11.60;;;18.60;37.70;;;;;;5073644;28;20111;-36
2022/01/14 08:11:36;;;;;;;19.27;11.48;;;18.60;37.50;;;;;;5072692;28;20100;-36
2022/01/14 08:14:03;;;;;;;22.25;11.57;;;18.60;37.30;;;;;;5037803;28;20017;-36
2022/01/14 08:16:28;;;;;;;20.40;11.50;;;18.60;37.40;;;;;;5053482;28;20391;-36
2022/01/14 08:18:54;;;;;;;25.52;12.05;;;18.50;37.10;;;;;;5053326;28;20375;-36
2022/01/14 08:21:20;;;;;;;18.42;10.60;;;18.40;37.80;;;;;;5053326;28;20029;-36
2022/01/14 08:23:45;;;;;;;21.40;11.25;;;18.40;37.50;;;;;;5054013;28;20512;-36
2022/01/14 08:26:11;;;;;;;21.23;10.95;;;18.50;37.70;;;;;;5072299;28;20043;-35
2022/01/14 08:28:38;;;;;;;20.85;11.68;;;18.50;37.70;;;;;;5072243;28;20017;-35
2022/01/14 08:31:03;;;;;;;17.65;10.35;;;18.50;37.40;;;;;;5071994;28;20024;-35
2022/01/14 08:33:31;;;;;;;18.17;10.27;;;18.50;37.10;;;;;;5054147;28;20600;-35
2022/01/14 08:35:58;;;;;;;17.48;10.88;;;18.50;36.90;;;;;;5054621;28;20016;-35
2022/01/14 08:38:24;;;;;;;16.15;11.45;;;18.50;36.60;;;;;;5071936;28;20027;-35
2022/01/14 08:40:49;;;;;;;15.10;10.73;;;18.50;36.50;;;;;;5072174;28;20099;-35
2022/01/14 08:43:15;;;;;;;17.05;12.27;;;18.50;36.30;;;;;;5072080;28;20056;-34
2022/01/14 08:45:41;;;;;;;18.75;13.13;;;18.50;36.00;;;;;;5072003;28;20508;-35
2022/01/14 08:48:07;;;;;;;20.38;13.25;;;18.50;36.50;;;;;;5053900;28;20029;-35
2022/01/14 08:50:35;;;;;;;21.65;13.15;;;18.60;35.80;;;;;;5072199;28;20055;-35
2022/01/14 08:53:02;;;;;;;22.40;13.55;;;18.70;35.80;;;;;;5072355;28;20013;-35
2022/01/14 08:55:30;;;;;;;17.38;12.77;;;18.70;35.50;;;;;;5072545;28;20136;-35
2022/01/14 08:57:57;;;;;;;20.33;12.80;;;18.70;35.20;;;;;;5072276;28;20013;-35
2022/01/14 09:00:24;;;;;;;16.75;11.35;;;18.70;35.10;;;;;;5071891;28;20013;-34
2022/01/14 09:02:52;;;;;;;16.05;11.30;;;18.70;35.10;;;;;;5072523;28;20042;-35
2022/01/14 09:05:19;;;;;;;20.60;11.20;;;18.70;35.10;;;;;;5054860;28;20052;-35
2022/01/14 09:07:44;;;;;;;19.48;11.25;;;18.70;35.10;;;;;;5073854;28;20171;-35
2022/01/14 09:10:10;;;;;;;18.45;10.65;;;18.60;35.00;;;;;;5058660;28;20479;-43
2022/01/14 09:12:36;;;;;;;19.92;10.75;;;18.50;35.50;;;;;;5076359;28;20035;-37
2022/01/14 09:15:03;;;;;;;23.77;10.60;;;18.40;35.70;;;;;;5076624;28;20013;-37
2022/01/14 09:17:29;;;;;;;23.80;11.18;;;18.30;35.90;;;;;;5076341;28;20012;-36
2022/01/14 09:19:55;;;;;;;25.88;10.57;;;18.20;36.20;;;;;;5058058;28;20536;-35
2022/01/14 09:22:22;;;;;;;24.88;10.60;;;18.20;37.30;;;;;;5058521;28;20032;-36
2022/01/14 09:24:48;;;;;;;31.23;10.55;;;18.30;37.70;;;;;;5076387;28;20115;-35
2022/01/14 09:27:14;;;;;;;27.35;11.40;;;18.50;37.70;;;;;;5076962;28;20079;-35
2022/01/14 09:29:42;;;;;;;20.98;10.05;;;18.60;37.30;;;;;;5059579;28;20382;-36
2022/01/14 09:32:08;;;;;;;17.92;10.57;;;18.70;36.80;;;;;;5077742;28;20028;-35
2022/01/14 09:34:34;;;;;;;16.60;10.32;;;18.80;36.40;;;;;;5076487;28;20016;-38
2022/01/14 09:37:00;;;;;;;16.83;9.20;;;18.90;36.10;;;;;;5076868;28;20015;-35
2022/01/14 09:39:26;;;;;;;18.67;10.30;;;18.80;36.20;;;;;;5076475;28;20096;-35
2022/01/14 09:41:54;;;;;;;15.75;9.70;;;18.80;36.00;;;;;;5077268;28;20016;-35
2022/01/14 09:44:21;;;;;;;18.87;10.43;;;18.90;36.00;;;;;;5077382;28;20035;-35
2022/01/14 09:46:50;;;;;;;16.33;9.73;;;18.90;35.90;;;;;;5076525;28;20005;-35
2022/01/14 09:49:16;;;;;;;15.77;9.87;;;18.80;35.90;;;;;;5058171;28;20118;-35
2022/01/14 09:51:42;;;;;;;15.38;10.00;;;18.80;35.90;;;;;;5076816;28;20035;-35
2022/01/14 09:54:10;;;;;;;15.10;10.32;;;18.80;35.90;;;;;;5076863;28;20044;-35
2022/01/14 09:56:36;;;;;;;15.65;10.63;;;18.80;35.80;;;;;;5076963;28;20013;-35
2022/01/14 09:59:03;;;;;;;16.85;10.75;;;18.90;35.70;;;;;;5042841;28;20414;-36
2022/01/14 10:01:36;;;;;;;14.75;10.80;;;18.90;35.60;;;;;;5077095;28;20107;-36
2022/01/14 10:04:02;;;;;;;15.73;10.70;;;18.90;35.50;;;;;;5077047;28;20440;-35
2022/01/14 10:06:41;;;;;;;17.88;11.10;;;19.00;35.40;;;;;;5075517;28;20023;-35
2022/01/14 10:09:20;;;;;;;18.38;11.52;;;19.00;35.20;;;;;;5075720;28;20009;-35
2022/01/14 10:12:03;;;;;;;17.77;10.43;;;19.10;35.30;;;;;;5076134;28;20009;-35
2022/01/14 10:14:29;;;;;;;21.08;11.00;;;19.00;35.40;;;;;;5075956;28;20351;-34
2022/01/14 10:16:58;;;;;;;24.40;10.73;;;19.10;36.90;;;;;;5077312;28;20020;-34
2022/01/14 10:19:34;;;;;;;19.92;11.15;;;19.10;37.10;;;;;;5076447;28;20048;-34
2022/01/14 10:22:00;;;;;;;23.73;10.30;;;19.20;37.00;;;;;;5076709;28;20097;-35
2022/01/14 10:24:29;;;;;;;17.40;9.95;;;19.20;36.70;;;;;;5058331;28;20082;-34
2022/01/14 10:27:04;;;;;;;15.48;9.27;;;19.20;36.30;;;;;;5076134;28;20028;-34
2022/01/14 10:29:39;;;;;;;12.25;8.98;;;19.30;36.20;;;;;;5058479;28;20020;-35
2022/01/14 10:32:07;;;;;;;17.75;9.43;;;19.20;35.90;;;;;;5058398;28;20040;-36
2022/01/14 10:34:33;;;;;;;14.35;9.02;;;19.20;35.60;;;;;;5076333;28;20087;-35
2022/01/14 10:37:14;;;;;;;12.30;8.57;;;19.30;35.60;;;;;;5076170;28;20086;-37
2022/01/14 10:39:52;;;;;;;13.45;8.88;;;19.30;35.70;;;;;;5075687;28;20048;-37
2022/01/14 10:42:29;;;;;;;18.58;9.00;;;19.40;35.60;;;;;;5076446;28;20017;-34
2022/01/14 10:44:56;;;;;;;11.55;8.00;;;19.40;35.60;;;;;;5076315;28;20020;-37
2022/01/14 10:47:23;;;;;;;12.95;8.43;;;19.50;35.70;;;;;;5076314;28;20020;-35
2022/01/14 10:49:56;;;;;;;10.50;8.25;;;19.50;35.60;;;;;;5076793;28;20053;-35
2022/01/14 10:52:26;;;;;;;13.60;8.68;;;19.60;35.60;;;;;;5077035;28;20017;-37
2022/01/14 10:54:54;;;;;;;11.57;7.90;;;19.60;35.30;;;;;;5076487;28;20151;-36
2022/01/14 10:57:28;;;;;;;11.43;8.55;;;19.60;35.20;;;;;;5074823;28;20051;-35
2022/01/14 10:59:56;;;;;;;12.77;8.35;;;19.60;35.20;;;;;;5078897;28;20074;-37
2022/01/14 11:02:35;;;;;;;12.85;8.88;;;19.50;35.10;;;;;;5077783;28;20072;-36
2022/01/14 11:05:05;;;;;;;13.75;8.60;;;19.40;34.90;;;;;;5077061;28;20032;-36
2022/01/14 11:07:32;;;;;;;18.75;9.50;;;19.30;35.30;;;;;;5061621;28;20021;-36
2022/01/14 11:09:59;;;;;;;17.40;8.50;;;19.30;35.00;;;;;;5078738;28;20013;-37
2022/01/14 11:12:25;;;;;;;18.52;9.43;;;19.20;35.20;;;;;;5078228;28;20028;-35
2022/01/14 11:14:51;;;;;;;15.43;9.13;;;19.10;35.20;;;;;;5077785;28;20478;-37
2022/01/14 11:17:17;;;;;;;18.05;9.20;;;19.10;35.30;;;;;;5079600;28;20027;-36
2022/01/14 11:19:46;;;;;;;16.15;10.07;;;19.00;35.40;;;;;;5079727;28;20008;-37
2022/01/14 11:24:57;;;;;;;15.27;9.55;;;19.20;34.80;;;;;;5063234;28;20063;-36
2022/01/14 11:27:24;;;;;;;16.55;9.13;;;19.30;34.60;;;;;;5077092;28;20021;-36
2022/01/14 11:29:51;;;;;;;16.30;9.43;;;19.40;34.30;;;;;;5059433;28;20042;-38
2022/01/14 11:32:17;;;;;;;12.38;9.02;;;19.40;34.10;;;;;;5079160;28;20027;-37
2022/01/14 11:34:48;;;;;;;11.70;8.93;;;19.50;34.00;;;;;;5059746;28;20083;-36
2022/01/14 11:37:14;;;;;;;;;;;19.50;34.00;;;;;;5077610;28;20020;-37
2022/01/14 11:39:41;;;;;;;11.10;9.20;;;19.60;33.90;;;;;;5076031;28;19901;-37
2022/01/14 11:42:09;;;;;;;12.00;9.07;;;19.50;33.90;;;;;;5075777;28;20080;-38
2022/01/14 11:47:24;;;;;;;10.85;8.82;;;19.60;34.00;;;;;;5074070;28;20021;-37
2022/01/14 11:49:50;;;;;;;15.68;9.80;;;19.50;34.10;;;;;;5072543;28;20012;-35
2022/01/14 11:52:34;;;;;;;19.10;10.85;;;19.30;34.90;;;;;;5072331;28;20099;-35
2022/01/14 11:55:00;;;;;;;21.52;10.10;;;19.10;36.90;;;;;;5035743;28;20092;-35
2022/01/14 11:57:46;;;;;;;25.92;10.40;;;19.10;37.90;;;;;;5031630;28;20018;-35
2022/01/14 12:00:27;;;;;;;20.90;9.90;;;19.10;38.40;;;;;;5031419;28;20017;-35
2022/01/14 12:02:57;;;;;;;22.65;9.55;;;19.20;38.70;;;;;;5032457;28;20095;-35
2022/01/14 12:05:27;;;;;;;23.63;9.65;;;19.20;38.70;;;;;;5031954;28;20016;-35
2022/01/14 12:08:02;;;;;;;20.05;9.68;;;19.20;38.70;;;;;;5030790;28;20468;-35
2022/01/14 12:10:38;;;;;;;17.08;10.32;;;19.20;38.50;;;;;;5032490;28;20036;-34
2022/01/14 12:13:29;;;;;;;16.10;9.82;;;19.20;39.00;;;;;;5031989;28;20016;-34
2022/01/14 12:16:01;;;;;;;16.10;9.55;;;19.30;38.60;;;;;;5032088;28;20025;-34
2022/01/14 12:19:02;;;;;;;11.18;8.98;;;19.30;38.60;;;;;;5031443;28;20021;-34
2022/01/14 12:21:42;;;;;;;17.92;9.52;;;19.50;38.70;;;;;;4951506;29;20027;-35
2022/01/14 12:24:17;;;;;;;15.70;10.07;;;19.60;38.90;;;;;;4951522;29;20046;-36
2022/01/14 12:26:44;;;;;;;16.50;9.52;;;19.60;38.90;;;;;;4935413;29;20035;-34
2022/01/14 12:29:11;;;;;;;15.25;9.60;;;19.60;38.90;;;;;;4919413;29;20031;-34
2022/01/14 12:32:04;;;;;;;13.73;8.65;;;19.70;38.90;;;;;;4951366;29;20035;-35
2022/01/14 12:34:33;;;;;;;12.68;8.85;;;19.80;38.90;;;;;;4909298;29;20030;-35
2022/01/14 12:36:59;;;;;;;15.75;9.30;;;19.80;38.90;;;;;;4950940;29;20103;-34
2022/01/14 12:39:25;;;;;;;19.60;9.18;;;19.80;39.10;;;;;;4951678;29;20098;-34
2022/01/14 12:41:55;;;;;;;16.65;9.45;;;19.90;39.00;;;;;;4950837;28;20081;-35
2022/01/14 12:44:22;;;;;;;22.08;10.27;;;19.80;38.50;;;;;;4951932;29;20035;-35
2022/01/14 12:46:58;;;;;;;20.52;9.90;;;19.80;38.50;;;;;;4952228;29;20098;-35
2022/01/14 12:49:26;;;;;;;22.17;9.80;;;19.80;38.30;;;;;;4936119;29;20422;-35
2022/01/14 12:52:10;;;;;;;21.40;10.70;;;19.60;38.50;;;;;;4952645;29;20020;-38
2022/01/14 12:54:43;;;;;;;18.98;10.10;;;19.60;38.60;;;;;;4974813;28;20091;-35
2022/01/14 12:57:13;;;;;;;17.80;10.13;;;19.60;38.60;;;;;;5031920;28;20387;-37
2022/01/14 12:59:42;;;;;;;19.88;9.50;;;19.60;38.50;;;;;;5032734;28;20538;-36
2022/01/14 13:02:08;;;;;;;20.80;10.30;;;19.70;38.30;;;;;;5048280;28;20377;-36
2022/01/14 13:04:33;;;;;;;16.33;10.25;;;19.60;38.10;;;;;;5032507;28;20472;-36